Time;durP1;ratioP1;P1;durP2;ratioP2;P2;SDS_P1;SDS_P2;PMS_P1;PMS_P2;Temp;Humidity;BMP_temperature;BMP_pressure;BME280_temperature;BME280_humidity;BME280_pressure;Samples;Min_cycle;Max_cycle;Signal;HPM_P1;HPM_P2
2022/11/08 00:01:31;;;;;;;1.90;1.53;;;;;;;;;;5040965;28;20186;-52
2022/11/08 00:04:01;;;;;;;2.03;1.60;;;;;;;;;;5039909;28;20178;-53
2022/11/08 00:14:39;;;;;;;1.43;1.23;;;;;;;;;;5043920;28;20216;-55
2022/11/08 00:17:04;;;;;;;1.93;1.50;;;;;;;;;;5035537;28;20183;-55
2022/11/08 00:19:29;;;;;;;1.97;1.57;;;;;;;;;;5038539;28;20182;-55
2022/11/08 00:21:54;;;;;;;1.73;1.40;;;;;;;;;;5036876;28;20670;-54
2022/11/08 00:24:19;;;;;;;1.37;1.27;;;;;;;;;;5040269;28;20202;-55
2022/11/08 00:26:45;;;;;;;2.03;1.50;;;;;;;;;;5039144;28;20228;-52
2022/11/08 00:29:10;;;;;;;1.60;1.50;;;;;;;;;;5046563;28;20271;-57
2022/11/08 00:31:35;;;;;;;1.40;1.30;;;;;;;;;;5052271;28;20190;-57
2022/11/08 00:34:01;;;;;;;1.90;1.50;;;;;;;;;;5047097;28;20709;-55
2022/11/08 00:36:26;;;;;;;1.73;1.57;;;;;;;;;;5050011;28;20210;-56
2022/11/08 00:38:51;;;;;;;1.97;1.60;;;;;;;;;;5047986;28;20195;-55
2022/11/08 00:41:16;;;;;;;1.53;1.43;;;;;;;;;;5046690;28;20611;-56
2022/11/08 00:43:42;;;;;;;1.67;1.40;;;;;;;;;;5049490;28;20836;-54
2022/11/08 00:46:07;;;;;;;1.90;1.40;;;;;;;;;;5045180;28;20300;-57
2022/11/08 00:48:32;;;;;;;1.67;1.57;;;;;;;;;;5045778;28;20183;-56
2022/11/08 00:51:06;;;;;;;2.13;1.50;;;;;;;;;;5050023;28;20191;-52
2022/11/08 00:53:32;;;;;;;2.20;1.60;;;;;;;;;;5045025;28;20183;-53
2022/11/08 00:55:58;;;;;;;1.57;1.30;;;;;;;;;;5033857;28;20222;-57
2022/11/08 00:58:24;;;;;;;1.57;1.40;;;;;;;;;;5041692;28;20180;-53
2022/11/08 01:00:49;;;;;;;2.53;1.70;;;;;;;;;;5051858;28;20194;-53
2022/11/08 01:03:20;;;;;;;2.00;1.43;;;;;;;;;;5047157;28;20186;-55
2022/11/08 01:05:50;;;;;;;2.77;1.67;;;;;;;;;;5045801;28;20196;-57
2022/11/08 01:08:17;;;;;;;1.73;1.50;;;;;;;;;;5048980;28;20187;-54
2022/11/08 01:10:44;;;;;;;1.60;1.47;;;;;;;;;;5052507;28;20187;-56
2022/11/08 01:13:10;;;;;;;2.10;1.50;;;;;;;;;;5049816;28;20278;-54
2022/11/08 01:15:37;;;;;;;2.70;1.93;;;;;;;;;;5043718;28;20215;-54
2022/11/08 01:18:03;;;;;;;2.00;1.50;;;;;;;;;;5050236;28;20202;-56
2022/11/08 01:20:28;;;;;;;1.90;1.70;;;;;;;;;;5050408;28;20167;-56
2022/11/08 01:22:54;;;;;;;1.80;1.57;;;;;;;;;;5050461;28;20186;-57
2022/11/08 01:25:19;;;;;;;2.57;1.40;;;;;;;;;;5048193;28;20196;-55
2022/11/08 01:27:44;;;;;;;2.40;1.60;;;;;;;;;;5050376;28;20171;-53
2022/11/08 01:30:10;;;;;;;2.07;1.40;;;;;;;;;;5050470;28;20710;-56
2022/11/08 01:32:35;;;;;;;2.37;1.73;;;;;;;;;;5049419;28;20788;-55
2022/11/08 01:35:00;;;;;;;1.97;1.50;;;;;;;;;;5043066;28;20210;-54
2022/11/08 01:37:25;;;;;;;1.63;1.40;;;;;;;;;;5048094;28;20183;-57
2022/11/08 01:39:50;;;;;;;2.03;1.33;;;;;;;;;;5049994;28;20253;-54
2022/11/08 01:42:16;;;;;;;1.70;1.30;;;;;;;;;;5048660;28;20183;-58
2022/11/08 01:44:58;;;;;;;1.70;1.60;;;;;;;;;;5045530;28;20284;-53
2022/11/08 01:47:24;;;;;;;1.70;1.40;;;;;;;;;;5051856;28;20404;-52
2022/11/08 01:49:50;;;;;;;2.43;1.60;;;;;;;;;;5050205;28;20677;-53
2022/11/08 01:52:18;;;;;;;2.13;1.57;;;;;;;;;;5048613;28;20178;-56
2022/11/08 01:55:00;;;;;;;3.10;1.47;;;;;;;;;;5046846;28;20678;-52
2022/11/08 01:57:30;;;;;;;2.00;1.63;;;;;;;;;;5048056;28;20177;-58
2022/11/08 02:00:00;;;;;;;1.77;1.60;;;;;;;;;;5048833;28;20171;-55
2022/11/08 02:02:26;;;;;;;1.60;1.50;;;;;;;;;;5042994;28;20176;-56
2022/11/08 02:04:51;;;;;;;2.23;1.60;;;;;;;;;;5049382;28;20238;-54
2022/11/08 02:07:16;;;;;;;2.43;1.50;;;;;;;;;;5051177;28;20264;-53
2022/11/08 02:09:44;;;;;;;2.03;1.50;;;;;;;;;;5046613;28;20206;-52
2022/11/08 02:12:09;;;;;;;1.93;1.60;;;;;;;;;;5050692;28;20183;-55
2022/11/08 02:14:35;;;;;;;2.00;1.40;;;;;;;;;;5049246;28;20209;-54
2022/11/08 02:17:01;;;;;;;1.73;1.63;;;;;;;;;;5050489;28;20256;-54
2022/11/08 02:19:35;;;;;;;2.13;1.60;;;;;;;;;;5047184;28;20235;-55
2022/11/08 02:22:03;;;;;;;1.70;1.40;;;;;;;;;;5044991;28;20182;-55
2022/11/08 02:24:28;;;;;;;1.50;1.40;;;;;;;;;;5049823;28;20198;-53
2022/11/08 02:26:54;;;;;;;2.03;1.60;;;;;;;;;;5049420;28;20182;-55
2022/11/08 02:29:28;;;;;;;1.57;1.33;;;;;;;;;;5044005;28;20720;-52
2022/11/08 02:31:54;;;;;;;1.80;1.40;;;;;;;;;;5050019;28;20665;-55
2022/11/08 02:34:26;;;;;;;1.57;1.40;;;;;;;;;;5052626;28;20576;-53
2022/11/08 02:36:51;;;;;;;1.50;1.40;;;;;;;;;;5044311;28;20231;-56
2022/11/08 02:39:16;;;;;;;1.73;1.53;;;;;;;;;;5037985;28;20589;-56
2022/11/08 02:41:41;;;;;;;2.03;1.63;;;;;;;;;;5044888;28;20166;-55
2022/11/08 02:44:07;;;;;;;2.70;1.73;;;;;;;;;;5043755;28;20194;-53
2022/11/08 02:46:32;;;;;;;1.60;1.50;;;;;;;;;;5042072;28;20229;-55
2022/11/08 02:48:57;;;;;;;1.50;1.40;;;;;;;;;;5048587;28;20183;-53
2022/11/08 02:51:22;;;;;;;1.80;1.40;;;;;;;;;;5045763;28;20271;-53
2022/11/08 02:53:47;;;;;;;1.83;1.43;;;;;;;;;;5045197;28;20183;-53
2022/11/08 02:56:13;;;;;;;1.50;1.40;;;;;;;;;;5044977;28;20320;-57
2022/11/08 02:58:38;;;;;;;1.53;1.43;;;;;;;;;;5040895;28;20170;-54
2022/11/08 03:01:03;;;;;;;1.67;1.50;;;;;;;;;;5046721;28;20171;-55
2022/11/08 03:03:28;;;;;;;1.73;1.50;;;;;;;;;;5046172;28;20244;-56
2022/11/08 03:05:55;;;;;;;2.40;1.50;;;;;;;;;;5046170;28;20199;-54
2022/11/08 03:08:21;;;;;;;1.90;1.43;;;;;;;;;;5043801;28;20179;-55
2022/11/08 03:10:46;;;;;;;1.60;1.40;;;;;;;;;;5048312;28;20198;-51
2022/11/08 03:13:11;;;;;;;1.60;1.37;;;;;;;;;;5048606;28;20262;-55
2022/11/08 03:15:36;;;;;;;2.13;1.70;;;;;;;;;;5063584;22;20218;-55
2022/11/08 03:18:02;;;;;;;1.30;1.20;;;;;;;;;;5057689;28;20209;-57
2022/11/08 03:20:27;;;;;;;1.60;1.50;;;;;;;;;;5058695;28;20178;-58
2022/11/08 03:23:04;;;;;;;1.50;1.40;;;;;;;;;;5061586;28;20223;-57
2022/11/08 03:25:30;;;;;;;1.50;1.30;;;;;;;;;;5060602;28;20263;-60
2022/11/08 03:28:03;;;;;;;2.90;1.43;;;;;;;;;;5050637;28;20286;-59
2022/11/08 03:30:28;;;;;;;1.60;1.50;;;;;;;;;;5054356;28;20221;-56
2022/11/08 03:32:54;;;;;;;1.30;1.20;;;;;;;;;;5041748;28;20186;-61
2022/11/08 03:35:19;;;;;;;1.87;1.40;;;;;;;;;;5049797;28;20666;-59
2022/11/08 03:37:54;;;;;;;1.90;1.40;;;;;;;;;;5051519;28;20174;-60
2022/11/08 03:40:20;;;;;;;1.73;1.20;;;;;;;;;;5048059;28;20302;-59
2022/11/08 03:42:45;;;;;;;1.50;1.40;;;;;;;;;;5040631;28;20281;-57
2022/11/08 03:45:11;;;;;;;1.80;1.40;;;;;;;;;;5049132;28;20203;-56
2022/11/08 03:47:41;;;;;;;1.40;1.30;;;;;;;;;;5054959;28;20303;-58
2022/11/08 03:50:08;;;;;;;1.80;1.30;;;;;;;;;;5051959;28;20708;-61
2022/11/08 03:52:45;;;;;;;1.37;1.10;;;;;;;;;;5045680;28;20191;-59
2022/11/08 03:55:11;;;;;;;1.47;1.37;;;;;;;;;;5049779;28;20194;-60
2022/11/08 03:57:37;;;;;;;1.50;1.40;;;;;;;;;;5047173;28;20185;-58
2022/11/08 04:00:04;;;;;;;1.40;1.27;;;;;;;;;;5040755;28;20175;-60
2022/11/08 04:02:29;;;;;;;1.70;1.40;;;;;;;;;;5053757;28;20224;-58
2022/11/08 04:04:55;;;;;;;1.53;1.40;;;;;;;;;;5050952;28;20226;-59
2022/11/08 04:07:20;;;;;;;1.90;1.70;;;;;;;;;;5050409;28;20190;-59
2022/11/08 04:09:45;;;;;;;1.73;1.40;;;;;;;;;;5051692;28;20202;-59
2022/11/08 04:23:07;;;;;;;1.53;1.37;;;;;;;;;;5049480;28;20236;-60
2022/11/08 04:25:32;;;;;;;1.40;1.30;;;;;;;;;;5048962;28;20605;-58
2022/11/08 04:27:57;;;;;;;1.73;1.50;;;;;;;;;;5043412;28;20240;-60
2022/11/08 04:30:22;;;;;;;1.63;1.40;;;;;;;;;;5052732;28;20293;-58
2022/11/08 04:32:47;;;;;;;1.37;1.20;;;;;;;;;;5047975;28;20624;-58
2022/11/08 04:35:13;;;;;;;1.40;1.30;;;;;;;;;;5046975;28;20689;-58
2022/11/08 04:37:38;;;;;;;1.60;1.50;;;;;;;;;;5044428;28;20166;-59
2022/11/08 04:40:03;;;;;;;1.30;1.20;;;;;;;;;;5039865;28;20171;-58
2022/11/08 04:42:29;;;;;;;1.60;1.40;;;;;;;;;;5048659;28;20178;-59
2022/11/08 04:44:54;;;;;;;2.07;1.47;;;;;;;;;;5044545;28;20681;-59
2022/11/08 04:47:19;;;;;;;1.60;1.50;;;;;;;;;;5037946;28;20602;-57
2022/11/08 04:49:44;;;;;;;1.93;1.40;;;;;;;;;;5053036;28;20589;-59
2022/11/08 04:52:09;;;;;;;1.87;1.40;;;;;;;;;;5042345;28;20551;-58
2022/11/08 04:54:35;;;;;;;1.73;1.40;;;;;;;;;;5043551;28;22073;-58
2022/11/08 04:57:00;;;;;;;1.40;1.30;;;;;;;;;;5047653;28;20671;-59
2022/11/08 04:59:25;;;;;;;1.30;1.20;;;;;;;;;;5053613;28;20183;-58
2022/11/08 05:01:50;;;;;;;1.90;1.40;;;;;;;;;;5039234;28;20240;-58
2022/11/08 05:04:16;;;;;;;1.33;1.23;;;;;;;;;;5040395;28;20228;-58
2022/11/08 05:06:41;;;;;;;1.47;1.33;;;;;;;;;;5048832;28;20530;-61
2022/11/08 05:09:06;;;;;;;1.83;1.50;;;;;;;;;;5046174;28;20199;-60
2022/11/08 05:11:31;;;;;;;1.60;1.40;;;;;;;;;;5044078;28;20240;-58
2022/11/08 05:13:57;;;;;;;1.60;1.30;;;;;;;;;;5044220;28;20179;-59
2022/11/08 05:16:25;;;;;;;1.53;1.43;;;;;;;;;;5048154;28;20265;-59
2022/11/08 05:18:50;;;;;;;1.30;1.20;;;;;;;;;;5043490;28;20268;-60
2022/11/08 05:24:03;;;;;;;1.63;1.50;;;;;;;;;;5043993;28;20214;-59
2022/11/08 05:26:28;;;;;;;1.20;1.10;;;;;;;;;;5054854;28;20230;-60
2022/11/08 05:28:54;;;;;;;1.60;1.50;;;;;;;;;;5038769;28;20207;-57
2022/11/08 05:31:19;;;;;;;1.50;1.40;;;;;;;;;;5054346;28;20186;-60
2022/11/08 05:33:45;;;;;;;1.57;1.43;;;;;;;;;;5052440;28;20178;-59
2022/11/08 05:36:12;;;;;;;1.77;1.47;;;;;;;;;;5055682;28;20217;-59
2022/11/08 05:38:38;;;;;;;1.60;1.50;;;;;;;;;;5047109;28;20174;-60
2022/11/08 05:41:09;;;;;;;1.40;1.30;;;;;;;;;;5050185;28;20257;-59
2022/11/08 05:43:35;;;;;;;3.73;1.47;;;;;;;;;;5044826;28;20638;-57
2022/11/08 05:46:00;;;;;;;1.50;1.33;;;;;;;;;;5045797;28;20206;-58
2022/11/08 05:48:25;;;;;;;1.40;1.30;;;;;;;;;;5045900;28;20279;-60
2022/11/08 05:50:51;;;;;;;1.70;1.60;;;;;;;;;;5049269;28;20217;-57
2022/11/08 05:53:16;;;;;;;1.70;1.50;;;;;;;;;;5045168;28;20186;-58
2022/11/08 05:55:41;;;;;;;1.70;1.40;;;;;;;;;;5054658;28;20241;-58
2022/11/08 05:58:07;;;;;;;1.83;1.43;;;;;;;;;;5044421;28;20186;-56
2022/11/08 06:00:33;;;;;;;1.80;1.43;;;;;;;;;;5043553;28;20175;-58
2022/11/08 06:03:01;;;;;;;1.30;1.20;;;;;;;;;;5043644;28;20696;-58
2022/11/08 06:05:26;;;;;;;1.43;1.33;;;;;;;;;;5048672;28;20206;-59
2022/11/08 06:07:52;;;;;;;1.80;1.40;;;;;;;;;;5047812;28;20549;-58
2022/11/08 06:10:17;;;;;;;1.83;1.30;;;;;;;;;;5044287;28;20234;-58
2022/11/08 06:12:42;;;;;;;1.30;1.20;;;;;;;;;;5041142;28;20214;-58
2022/11/08 06:15:08;;;;;;;1.57;1.37;;;;;;;;;;5042683;28;20246;-57
2022/11/08 06:17:33;;;;;;;1.83;1.40;;;;;;;;;;5042716;28;21653;-59
2022/11/08 06:19:59;;;;;;;3.60;2.50;;;;;;;;;;5040782;28;20184;-57
2022/11/08 06:22:24;;;;;;;7.80;4.80;;;;;;;;;;5044458;28;20658;-59
2022/11/08 06:24:49;;;;;;;6.03;4.73;;;;;;;;;;5050829;28;20248;-59
2022/11/08 06:27:15;;;;;;;8.73;5.00;;;;;;;;;;5043265;28;20186;-58
2022/11/08 06:29:41;;;;;;;6.73;4.93;;;;;;;;;;5054857;28;20361;-59
2022/11/08 06:32:10;;;;;;;7.30;4.80;;;;;;;;;;5050632;28;20182;-57
2022/11/08 06:34:35;;;;;;;7.33;4.57;;;;;;;;;;5054137;28;20186;-60
2022/11/08 06:37:00;;;;;;;7.90;4.60;;;;;;;;;;5035244;28;20180;-59
2022/11/08 06:39:26;;;;;;;7.00;4.90;;;;;;;;;;5044300;28;20549;-59
2022/11/08 06:41:51;;;;;;;7.67;4.37;;;;;;;;;;5049988;28;20178;-59
2022/11/08 06:44:16;;;;;;;6.37;3.97;;;;;;;;;;5044526;28;20228;-59
2022/11/08 06:46:42;;;;;;;6.37;4.13;;;;;;;;;;5039329;28;20535;-59
2022/11/08 06:49:07;;;;;;;7.93;4.20;;;;;;;;;;5043401;28;20646;-59
2022/11/08 06:51:32;;;;;;;5.93;3.63;;;;;;;;;;5043093;28;20270;-59
2022/11/08 06:53:58;;;;;;;6.27;3.70;;;;;;;;;;5048533;28;20532;-58
2022/11/08 06:56:23;;;;;;;6.47;3.77;;;;;;;;;;5047128;28;20728;-59
2022/11/08 06:58:50;;;;;;;6.57;3.27;;;;;;;;;;5047691;28;20198;-59
2022/11/08 07:01:17;;;;;;;6.43;3.33;;;;;;;;;;5044816;28;20218;-54
2022/11/08 07:03:42;;;;;;;6.20;3.37;;;;;;;;;;5041958;28;20187;-51
2022/11/08 07:06:07;;;;;;;5.40;3.23;;;;;;;;;;5039196;28;20198;-60
2022/11/08 07:08:34;;;;;;;5.23;3.60;;;;;;;;;;5044383;28;20639;-59
2022/11/08 07:10:59;;;;;;;6.13;3.10;;;;;;;;;;5038522;28;20758;-58
2022/11/08 07:13:24;;;;;;;5.00;3.47;;;;;;;;;;5047419;28;20175;-58
2022/11/08 07:15:49;;;;;;;5.10;3.13;;;;;;;;;;5039143;28;20600;-56
2022/11/08 07:18:16;;;;;;;6.83;3.30;;;;;;;;;;5043011;28;20179;-59
2022/11/08 07:20:42;;;;;;;3.63;2.97;;;;;;;;;;5040739;28;20223;-55
2022/11/08 07:23:08;;;;;;;4.83;3.10;;;;;;;;;;5043460;28;20259;-56
2022/11/08 07:25:34;;;;;;;4.10;2.70;;;;;;;;;;5042737;28;20281;-57
2022/11/08 07:28:00;;;;;;;4.57;2.90;;;;;;;;;;5045975;28;20333;-56
2022/11/08 07:30:26;;;;;;;5.20;2.93;;;;;;;;;;5040964;28;20761;-57
2022/11/08 07:32:52;;;;;;;4.60;2.90;;;;;;;;;;5036147;28;20294;-58
2022/11/08 07:35:17;;;;;;;4.40;3.10;;;;;;;;;;5033281;28;20394;-59
2022/11/08 07:37:43;;;;;;;4.63;3.20;;;;;;;;;;5041416;28;20214;-56
2022/11/08 07:40:09;;;;;;;4.47;3.00;;;;;;;;;;5044285;28;20565;-58
2022/11/08 07:42:38;;;;;;;5.67;3.23;;;;;;;;;;5041828;28;20301;-59
2022/11/08 07:45:04;;;;;;;3.87;2.93;;;;;;;;;;5043769;28;20568;-59
2022/11/08 07:47:29;;;;;;;3.77;2.70;;;;;;;;;;5045812;28;20558;-60
2022/11/08 07:49:55;;;;;;;3.53;2.70;;;;;;;;;;5037410;28;20207;-59
2022/11/08 07:52:20;;;;;;;4.53;3.07;;;;;;;;;;5041568;28;20186;-59
2022/11/08 07:54:45;;;;;;;4.10;2.63;;;;;;;;;;5039147;28;20411;-56
2022/11/08 07:57:10;;;;;;;5.23;2.70;;;;;;;;;;5042803;28;20685;-58
2022/11/08 07:59:36;;;;;;;4.03;2.63;;;;;;;;;;5037604;28;20272;-57
2022/11/08 08:02:01;;;;;;;4.53;2.80;;;;;;;;;;5044230;28;20336;-58
2022/11/08 08:04:27;;;;;;;3.70;2.63;;;;;;;;;;5042042;28;20187;-58
2022/11/08 08:06:53;;;;;;;6.37;2.87;;;;;;;;;;5048620;28;20197;-59
2022/11/08 08:09:18;;;;;;;4.67;3.00;;;;;;;;;;5035694;28;20693;-60
2022/11/08 08:11:43;;;;;;;3.20;2.70;;;;;;;;;;5048839;28;20179;-57
2022/11/08 08:14:08;;;;;;;2.63;2.40;;;;;;;;;;5042790;28;20187;-60
2022/11/08 08:16:35;;;;;;;4.30;3.00;;;;;;;;;;5042802;28;20570;-59
2022/11/08 08:19:01;;;;;;;3.40;2.70;;;;;;;;;;5046840;28;20182;-51
2022/11/08 08:21:26;;;;;;;4.37;2.80;;;;;;;;;;5046877;28;20224;-54
2022/11/08 08:23:51;;;;;;;3.77;3.00;;;;;;;;;;5039788;28;20216;-55
2022/11/08 08:26:16;;;;;;;4.47;2.93;;;;;;;;;;5038727;28;20205;-56
2022/11/08 08:28:41;;;;;;;3.90;2.80;;;;;;;;;;5040279;28;20174;-57
2022/11/08 08:31:07;;;;;;;3.93;2.80;;;;;;;;;;5045854;28;20195;-61
2022/11/08 08:33:32;;;;;;;4.27;3.10;;;;;;;;;;5038440;28;20257;-60
2022/11/08 08:35:59;;;;;;;3.97;2.90;;;;;;;;;;5048128;28;20218;-57
2022/11/08 08:38:25;;;;;;;5.07;2.80;;;;;;;;;;5041601;28;20236;-58
2022/11/08 08:40:50;;;;;;;3.58;2.70;;;;;;;;;;5045720;28;20399;-56
2022/11/08 08:43:15;;;;;;;3.53;2.70;;;;;;;;;;5037031;28;20209;-59
2022/11/08 08:45:40;;;;;;;3.28;2.45;;;;;;;;;;5045923;28;20208;-58
2022/11/08 08:48:06;;;;;;;3.17;2.67;;;;;;;;;;5040126;28;20441;-59
2022/11/08 08:50:31;;;;;;;3.40;2.57;;;;;;;;;;5050943;28;20292;-62
2022/11/08 08:52:58;;;;;;;3.90;2.78;;;;;;;;;;5044228;28;20202;-61
2022/11/08 08:55:23;;;;;;;4.32;2.47;;;;;;;;;;5042940;28;20554;-62
2022/11/08 08:57:49;;;;;;;4.25;2.90;;;;;;;;;;5047132;28;20182;-63
2022/11/08 09:00:15;;;;;;;3.33;3.03;;;;;;;;;;5045968;28;20240;-59
2022/11/08 09:02:40;;;;;;;4.68;2.88;;;;;;;;;;5045832;28;20191;-59
2022/11/08 09:05:06;;;;;;;4.45;3.00;;;;;;;;;;5049375;28;20199;-59
2022/11/08 09:07:31;;;;;;;3.97;2.70;;;;;;;;;;5050151;28;20698;-60
2022/11/08 09:09:57;;;;;;;3.70;2.78;;;;;;;;;;5040813;28;20245;-60
2022/11/08 09:12:22;;;;;;;4.07;3.00;;;;;;;;;;5042554;28;20369;-57
2022/11/08 09:17:22;;;;;;;3.17;2.75;;;;;;;;;;5044312;28;20209;-52
2022/11/08 09:19:47;;;;;;;5.15;2.60;;;;;;;;;;5041316;28;20179;-53
2022/11/08 09:22:13;;;;;;;4.20;2.50;;;;;;;;;;5049931;28;20232;-55
2022/11/08 09:24:38;;;;;;;3.72;2.67;;;;;;;;;;5049954;28;20573;-52
2022/11/08 09:27:03;;;;;;;3.45;2.80;;;;;;;;;;5039193;28;20240;-55
2022/11/08 09:29:32;;;;;;;4.00;2.60;;;;;;;;;;5033914;28;20681;-52
2022/11/08 09:31:59;;;;;;;2.85;2.60;;;;;;;;;;5041387;28;20642;-51
2022/11/08 09:34:24;;;;;;;4.18;2.80;;;;;;;;;;5037246;28;20183;-54
2022/11/08 09:36:49;;;;;;;3.25;2.58;;;;;;;;;;5036165;28;20206;-55
2022/11/08 09:39:15;;;;;;;3.03;2.35;;;;;;;;;;5037231;28;20182;-53
2022/11/08 09:41:53;;;;;;;4.28;2.92;;;;;;;;;;5035327;28;20187;-55
2022/11/08 09:44:44;;;;;;;4.03;2.80;;;;;;;;;;5027988;28;20178;-56
2022/11/08 09:47:19;;;;;;;3.60;2.60;;;;;;;;;;5042415;28;20190;-52
2022/11/08 09:49:49;;;;;;;3.38;2.83;;;;;;;;;;5021638;28;20203;-50
2022/11/08 09:52:20;;;;;;;2.58;2.38;;;;;;;;;;5025087;28;20286;-51
2022/11/08 09:54:46;;;;;;;3.35;2.80;;;;;;;;;;5018231;28;20175;-51
2022/11/08 09:57:28;;;;;;;3.25;2.63;;;;;;;;;;5040827;28;20191;-52
2022/11/08 10:00:04;;;;;;;2.88;2.45;;;;;;;;;;5022580;28;20181;-53
2022/11/08 10:02:29;;;;;;;3.75;2.60;;;;;;;;;;5035899;28;20257;-54
2022/11/08 10:05:21;;;;;;;3.05;2.58;;;;;;;;;;5021126;28;22132;-53
2022/11/08 10:08:03;;;;;;;3.95;2.92;;;;;;;;;;5038261;28;20203;-54
2022/11/08 10:10:46;;;;;;;3.60;2.95;;;;;;;;;;5024735;28;20195;-53
2022/11/08 10:13:19;;;;;;;4.13;3.10;;;;;;;;;;5037717;28;20212;-55
2022/11/08 10:15:53;;;;;;;5.38;2.97;;;;;;;;;;5045052;28;20214;-55
2022/11/08 10:18:33;;;;;;;5.82;3.15;;;;;;;;;;5018484;28;20179;-56
2022/11/08 10:21:08;;;;;;;3.05;2.60;;;;;;;;;;5019699;28;20187;-54
2022/11/08 10:23:57;;;;;;;3.50;2.47;;;;;;;;;;5032693;28;20183;-56
2022/11/08 10:26:28;;;;;;;4.45;2.75;;;;;;;;;;5045056;28;20186;-51
2022/11/08 10:29:03;;;;;;;3.85;2.80;;;;;;;;;;5022245;28;20270;-56
2022/11/08 10:31:31;;;;;;;4.25;2.85;;;;;;;;;;5017869;28;20175;-57
2022/11/08 10:33:57;;;;;;;4.32;2.75;;;;;;;;;;5036978;28;20678;-52
2022/11/08 10:36:26;;;;;;;3.13;2.60;;;;;;;;;;5039313;28;20202;-53
2022/11/08 10:39:02;;;;;;;2.97;2.67;;;;;;;;;;5024067;28;20183;-50
2022/11/08 10:41:39;;;;;;;3.55;2.67;;;;;;;;;;5041842;28;20261;-53
2022/11/08 10:44:09;;;;;;;4.57;2.60;;;;;;;;;;5038145;28;20269;-50
2022/11/08 10:46:41;;;;;;;3.83;2.70;;;;;;;;;;5039419;28;20286;-52
2022/11/08 10:49:11;;;;;;;3.30;2.42;;;;;;;;;;5021078;28;20183;-53
2022/11/08 10:51:36;;;;;;;3.58;2.72;;;;;;;;;;5040404;28;20525;-54
2022/11/08 10:54:01;;;;;;;3.95;2.72;;;;;;;;;;5030810;28;20647;-53
2022/11/08 10:56:27;;;;;;;2.85;2.42;;;;;;;;;;5037088;28;20287;-55
2022/11/08 10:58:52;;;;;;;3.13;2.50;;;;;;;;;;5039141;28;20760;-55
2022/11/08 11:01:21;;;;;;;2.90;2.60;;;;;;;;;;5038836;28;20193;-54
2022/11/08 11:03:48;;;;;;;3.30;2.38;;;;;;;;;;5037462;28;20687;-53
2022/11/08 11:06:31;;;;;;;2.95;2.55;;;;;;;;;;5018759;28;20219;-54
2022/11/08 11:09:02;;;;;;;3.72;2.70;;;;;;;;;;5037867;28;20685;-56
2022/11/08 11:11:30;;;;;;;2.50;2.10;;;;;;;;;;5036069;28;20250;-56
2022/11/08 11:14:18;;;;;;;2.83;2.40;;;;;;;;;;5037502;28;20837;-55
2022/11/08 11:17:07;;;;;;;3.35;2.67;;;;;;;;;;5032830;28;20715;-55
2022/11/08 11:19:32;;;;;;;3.65;2.55;;;;;;;;;;5023054;28;20551;-55
2022/11/08 11:22:04;;;;;;;5.72;2.75;;;;;;;;;;5023228;28;20182;-55
2022/11/08 11:24:29;;;;;;;5.82;2.70;;;;;;;;;;5041087;28;20184;-54
2022/11/08 11:26:55;;;;;;;3.05;2.55;;;;;;;;;;5038414;28;20218;-55
2022/11/08 11:29:27;;;;;;;2.90;2.30;;;;;;;;;;5032005;28;20286;-56
2022/11/08 11:31:53;;;;;;;2.85;2.50;;;;;;;;;;5044591;28;20260;-48
2022/11/08 11:34:18;;;;;;;3.55;2.70;;;;;;;;;;5043973;28;20735;-56
2022/11/08 11:36:52;;;;;;;3.17;2.63;;;;;;;;;;5044972;28;20231;-50
2022/11/08 11:39:22;;;;;;;4.22;2.65;;;;;;;;;;5024370;28;20175;-52
2022/11/08 11:41:57;;;;;;;4.22;2.60;;;;;;;;;;5020936;28;20193;-51
2022/11/08 11:44:42;;;;;;;4.22;2.67;;;;;;;;;;5024710;28;20265;-50
2022/11/08 11:47:19;;;;;;;3.50;2.70;;;;;;;;;;5042187;28;20674;-52
2022/11/08 11:49:46;;;;;;;5.93;2.70;;;;;;;;;;5033421;28;20198;-53
2022/11/08 11:52:16;;;;;;;3.15;2.70;;;;;;;;;;5038871;28;20279;-54
2022/11/08 11:54:42;;;;;;;5.25;2.75;;;;;;;;;;5026720;28;20549;-52
2022/11/08 11:57:12;;;;;;;3.00;2.58;;;;;;;;;;5038756;28;20203;-55
2022/11/08 11:59:47;;;;;;;2.90;2.40;;;;;;;;;;5017090;28;20175;-56
2022/11/08 12:02:33;;;;;;;4.30;2.50;;;;;;;;;;5035024;28;20554;-54
2022/11/08 12:05:08;;;;;;;3.50;2.80;;;;;;;;;;5036360;28;20203;-53
2022/11/08 12:07:40;;;;;;;2.53;2.33;;;;;;;;;;5017483;28;20205;-52
2022/11/08 12:10:24;;;;;;;3.05;2.58;;;;;;;;;;5014159;28;20245;-53
2022/11/08 12:13:11;;;;;;;3.10;2.40;;;;;;;;;;5022847;28;20182;-54
2022/11/08 12:15:54;;;;;;;2.58;2.13;;;;;;;;;;5045824;28;20206;-55
2022/11/08 12:18:37;;;;;;;2.92;2.50;;;;;;;;;;5018124;28;20183;-55
2022/11/08 12:21:11;;;;;;;3.03;2.35;;;;;;;;;;5037837;28;20176;-55
2022/11/08 12:23:49;;;;;;;4.05;2.20;;;;;;;;;;5037377;28;20175;-50
2022/11/08 12:26:40;;;;;;;2.58;2.38;;;;;;;;;;5017639;28;20194;-53
2022/11/08 12:29:22;;;;;;;4.28;2.60;;;;;;;;;;5008960;28;20180;-53
2022/11/08 12:32:01;;;;;;;3.88;2.40;;;;;;;;;;5031864;28;20262;-52
2022/11/08 12:34:51;;;;;;;3.13;2.50;;;;;;;;;;5039157;28;20685;-53
2022/11/08 12:37:53;;;;;;;2.55;2.28;;;;;;;;;;5018934;28;20189;-55
2022/11/08 12:40:37;;;;;;;2.95;2.30;;;;;;;;;;5008486;28;20190;-52
2022/11/08 12:43:15;;;;;;;2.75;2.28;;;;;;;;;;5035513;28;20183;-54
2022/11/08 12:45:49;;;;;;;2.92;2.38;;;;;;;;;;5041285;28;20535;-51
2022/11/08 12:48:22;;;;;;;3.40;2.20;;;;;;;;;;5036367;28;20232;-49
2022/11/08 12:51:10;;;;;;;3.13;2.28;;;;;;;;;;5019547;28;20253;-50
2022/11/08 12:53:57;;;;;;;2.55;2.17;;;;;;;;;;5015018;28;20180;-53
2022/11/08 12:56:35;;;;;;;2.58;2.20;;;;;;;;;;5036784;28;20740;-52
2022/11/08 12:59:02;;;;;;;2.08;1.92;;;;;;;;;;5038550;28;20219;-53
2022/11/08 13:01:27;;;;;;;2.83;2.20;;;;;;;;;;5040253;28;20175;-53
2022/11/08 13:04:00;;;;;;;3.40;2.47;;;;;;;;;;5038265;28;20210;-52
2022/11/08 13:06:32;;;;;;;3.90;2.40;;;;;;;;;;5019978;28;20206;-56
2022/11/08 13:09:25;;;;;;;2.80;2.20;;;;;;;;;;5012739;28;20183;-54
2022/11/08 13:12:15;;;;;;;2.67;2.38;;;;;;;;;;5035851;28;20211;-52
2022/11/08 13:14:40;;;;;;;2.70;2.33;;;;;;;;;;5016980;28;20586;-51
2022/11/08 13:17:21;;;;;;;2.63;1.95;;;;;;;;;;5041724;28;20264;-51
2022/11/08 13:19:47;;;;;;;2.95;2.20;;;;;;;;;;5038023;28;20182;-55
2022/11/08 13:22:27;;;;;;;2.65;2.30;;;;;;;;;;5032026;28;20187;-59
2022/11/08 13:25:02;;;;;;;2.60;2.05;;;;;;;;;;5032430;28;20178;-61
2022/11/08 13:27:38;;;;;;;4.07;2.30;;;;;;;;;;5021113;28;20204;-54
2022/11/08 13:30:24;;;;;;;4.55;2.25;;;;;;;;;;5032186;28;20209;-55
2022/11/08 13:33:10;;;;;;;2.97;2.40;;;;;;;;;;5039967;28;20190;-52
2022/11/08 13:36:01;;;;;;;3.35;2.20;;;;;;;;;;5019583;28;20196;-54
2022/11/08 13:38:37;;;;;;;5.03;2.45;;;;;;;;;;5036194;28;20198;-56
2022/11/08 13:41:13;;;;;;;2.38;2.17;;;;;;;;;;5021363;28;20170;-55
2022/11/08 13:43:39;;;;;;;3.08;2.10;;;;;;;;;;5019881;28;20177;-54
2022/11/08 13:46:26;;;;;;;2.90;2.38;;;;;;;;;;5042519;28;20233;-57
2022/11/08 13:48:57;;;;;;;2.50;2.30;;;;;;;;;;5037804;28;20553;-55
2022/11/08 13:51:30;;;;;;;2.35;2.00;;;;;;;;;;5045132;28;20572;-59
2022/11/08 13:54:22;;;;;;;4.57;2.20;;;;;;;;;;5049088;28;20180;-59
2022/11/08 13:56:49;;;;;;;2.33;2.08;;;;;;;;;;5023731;28;20223;-59
2022/11/08 13:59:30;;;;;;;2.58;2.30;;;;;;;;;;5044889;28;20178;-57
2022/11/08 14:02:17;;;;;;;2.63;2.25;;;;;;;;;;5028800;28;20185;-56
2022/11/08 14:04:42;;;;;;;2.53;2.08;;;;;;;;;;5044005;28;20189;-59
2022/11/08 14:07:28;;;;;;;2.63;2.08;;;;;;;;;;5020647;28;20621;-59
2022/11/08 14:10:16;;;;;;;2.75;2.22;;;;;;;;;;5028111;28;20678;-61
2022/11/08 14:12:53;;;;;;;3.72;2.40;;;;;;;;;;5026149;28;20253;-61
2022/11/08 14:15:27;;;;;;;2.33;2.10;;;;;;;;;;5020320;28;20661;-59
2022/11/08 14:17:59;;;;;;;5.82;2.15;;;;;;;;;;5027754;28;20179;-51
2022/11/08 14:20:34;;;;;;;3.17;2.17;;;;;;;;;;5021253;28;20175;-58
2022/11/08 14:23:13;;;;;;;2.90;2.47;;;;;;;;;;5040713;28;20170;-59
2022/11/08 14:25:38;;;;;;;2.28;2.00;;;;;;;;;;4990513;28;20226;-59
2022/11/08 14:28:04;;;;;;;3.00;2.20;;;;;;;;;;5041203;28;20211;-56
2022/11/08 14:30:30;;;;;;;2.28;2.08;;;;;;;;;;5047571;28;20194;-57
2022/11/08 14:33:29;;;;;;;3.30;2.08;;;;;;;;;;5049275;28;20227;-60
2022/11/08 14:36:02;;;;;;;2.67;2.15;;;;;;;;;;5020189;28;20218;-59
2022/11/08 14:38:29;;;;;;;3.13;1.95;;;;;;;;;;5044421;28;20204;-59
2022/11/08 14:40:58;;;;;;;2.53;2.10;;;;;;;;;;5040031;28;20281;-56
2022/11/08 14:43:24;;;;;;;2.47;2.05;;;;;;;;;;5019197;28;20171;-52
2022/11/08 14:45:49;;;;;;;3.38;2.20;;;;;;;;;;5015873;28;20618;-54
2022/11/08 14:48:23;;;;;;;2.60;2.10;;;;;;;;;;5022479;28;20177;-56
2022/11/08 14:50:57;;;;;;;2.45;2.10;;;;;;;;;;5015944;28;20930;-56
2022/11/08 14:53:28;;;;;;;2.90;2.55;;;;;;;;;;5036948;28;20175;-57
2022/11/08 14:56:02;;;;;;;2.40;1.90;;;;;;;;;;5034432;28;20578;-58
2022/11/08 14:58:28;;;;;;;4.45;2.00;;;;;;;;;;5005899;28;20175;-56
2022/11/08 15:00:54;;;;;;;2.30;2.00;;;;;;;;;;5043032;28;20224;-58
2022/11/08 15:03:19;;;;;;;2.55;2.10;;;;;;;;;;5045269;28;20179;-56
2022/11/08 15:05:52;;;;;;;2.90;2.30;;;;;;;;;;5047230;28;20670;-55
2022/11/08 15:08:26;;;;;;;2.40;1.98;;;;;;;;;;5043525;28;20236;-55
2022/11/08 15:11:08;;;;;;;3.05;2.25;;;;;;;;;;5044950;28;20199;-57
2022/11/08 15:13:47;;;;;;;2.95;2.00;;;;;;;;;;5044245;28;20179;-57
2022/11/08 15:16:14;;;;;;;2.63;2.00;;;;;;;;;;5038778;28;20206;-58
2022/11/08 15:18:41;;;;;;;2.55;2.08;;;;;;;;;;5026124;28;20179;-55
2022/11/08 15:21:15;;;;;;;2.95;2.42;;;;;;;;;;5028142;28;20358;-52